createdAt,value
2023-03-05T00:01:50.190Z,6.53
2023-03-05T00:04:16.971Z,5.57
2023-03-05T00:06:43.893Z,6.50
2023-03-05T00:09:10.856Z,6.13
2023-03-05T00:11:37.386Z,6.57
2023-03-05T00:14:04.470Z,5.93
2023-03-05T00:16:31.329Z,6.45
2023-03-05T00:18:59.506Z,6.05
2023-03-05T00:21:31.517Z,6.72
2023-03-05T00:23:59.779Z,6.30
2023-03-05T00:26:26.598Z,6.20
2023-03-05T00:28:54.519Z,6.18
2023-03-05T00:31:24.090Z,6.20
2023-03-05T00:33:55.695Z,9.55
2023-03-05T00:36:23.857Z,6.47
2023-03-05T00:38:50.796Z,6.70
2023-03-05T00:41:17.360Z,6.15
2023-03-05T00:43:44.028Z,6.88
2023-03-05T00:46:11.233Z,6.68
2023-03-05T00:48:37.880Z,6.97
2023-03-05T00:51:04.878Z,7.30
2023-03-05T00:53:31.580Z,6.95
2023-03-05T00:55:59.084Z,7.95
2023-03-05T00:58:25.868Z,6.70
2023-03-05T01:00:52.424Z,7.82
2023-03-05T01:03:19.356Z,7.20
2023-03-05T01:05:46.194Z,7.18
2023-03-05T01:08:12.740Z,8.15
2023-03-05T01:10:39.501Z,7.38
2023-03-05T01:13:06.029Z,7.32
2023-03-05T01:15:32.628Z,6.78
2023-03-05T01:17:59.161Z,7.55
2023-03-05T01:20:26.804Z,7.22
2023-03-05T01:22:53.419Z,8.23
2023-03-05T01:25:20.515Z,8.63
2023-03-05T01:27:47.265Z,9.48
2023-03-05T01:30:14.987Z,8.35
2023-03-05T01:32:41.573Z,8.38
2023-03-05T01:35:09.282Z,8.70
2023-03-05T01:37:35.821Z,8.70
2023-03-05T01:40:02.466Z,7.53
2023-03-05T01:42:28.968Z,8.10
2023-03-05T01:45:01.139Z,7.65
2023-03-05T01:47:27.730Z,8.23
2023-03-05T01:49:54.398Z,8.95
2023-03-05T01:52:23.358Z,7.80
2023-03-05T01:54:56.707Z,8.38
2023-03-05T01:57:30.420Z,10.40
2023-03-05T02:00:02.079Z,8.60
2023-03-05T02:02:40.934Z,8.07
2023-03-05T02:05:12.986Z,8.70
2023-03-05T02:07:40.146Z,9.25
2023-03-05T02:10:21.866Z,8.18
2023-03-05T02:12:50.141Z,8.10
2023-03-05T02:15:17.731Z,8.60
2023-03-05T02:17:44.990Z,8.73
2023-03-05T02:20:23.200Z,7.65
2023-03-05T02:22:49.930Z,8.57
2023-03-05T02:25:24.141Z,8.38
2023-03-05T02:28:05.672Z,8.15
2023-03-05T02:32:59.218Z,8.48
2023-03-05T02:35:27.129Z,8.40
2023-03-05T02:37:53.710Z,7.70
2023-03-05T02:40:20.388Z,8.45
2023-03-05T02:42:47.296Z,7.75
2023-03-05T02:45:15.818Z,8.27
2023-03-05T02:47:42.808Z,8.57
2023-03-05T02:50:11.136Z,8.02
2023-03-05T02:52:38.892Z,8.23
2023-03-05T02:55:09.543Z,7.70
2023-03-05T02:57:37.253Z,8.75
2023-03-05T03:00:05.445Z,8.25
2023-03-05T03:02:32.297Z,8.27
2023-03-05T03:04:59.080Z,8.65
2023-03-05T03:07:26.013Z,9.55
2023-03-05T03:09:52.586Z,8.38
2023-03-05T03:12:19.390Z,8.68
2023-03-05T03:14:45.962Z,8.60
2023-03-05T03:17:17.829Z,9.13
2023-03-05T03:19:45.139Z,8.48
2023-03-05T03:22:13.739Z,8.80
2023-03-05T03:24:42.136Z,9.75
2023-03-05T03:27:09.110Z,8.80
2023-03-05T03:29:37.217Z,9.13
2023-03-05T03:32:04.015Z,9.32
2023-03-05T03:34:30.844Z,9.57
2023-03-05T03:36:57.379Z,8.93
2023-03-05T03:39:23.915Z,9.57
2023-03-05T03:41:52.784Z,10.38
2023-03-05T03:44:21.612Z,9.70
2023-03-05T03:46:50.482Z,9.50
2023-03-05T03:49:18.366Z,10.68
2023-03-05T03:51:45.337Z,10.80
2023-03-05T03:54:13.255Z,10.88
2023-03-05T03:56:40.015Z,9.40
2023-03-05T03:59:06.530Z,9.90
2023-03-05T04:01:33.292Z,10.23
2023-03-05T04:04:00.053Z,10.05
2023-03-05T04:06:27.037Z,9.85
2023-03-05T04:08:53.625Z,10.32
2023-03-05T04:11:20.456Z,10.52
2023-03-05T04:13:47.280Z,11.43
2023-03-05T04:16:14.861Z,11.23
2023-03-05T04:18:42.716Z,10.75
2023-03-05T04:21:09.700Z,10.88
2023-03-05T04:23:36.432Z,11.68
2023-03-05T04:26:03.622Z,10.80
2023-03-05T04:28:30.496Z,10.18
2023-03-05T04:30:57.275Z,10.70
2023-03-05T04:33:23.815Z,11.63
2023-03-05T04:35:50.698Z,10.68
2023-03-05T04:38:17.756Z,10.80
2023-03-05T04:40:45.642Z,10.10
2023-03-05T04:43:12.427Z,11.40
2023-03-05T04:45:40.824Z,11.50
2023-03-05T04:48:08.105Z,11.00
2023-03-05T04:50:34.691Z,11.02
2023-03-05T04:53:01.845Z,11.65
2023-03-05T04:55:28.703Z,11.73
2023-03-05T04:57:55.274Z,11.68
2023-03-05T05:00:22.149Z,11.48
2023-03-05T05:02:50.689Z,13.07
2023-03-05T05:05:23.390Z,11.73
2023-03-05T05:07:53.357Z,11.40
2023-03-05T05:10:19.989Z,12.55
2023-03-05T05:12:46.532Z,12.23
2023-03-05T05:15:13.378Z,12.75
2023-03-05T05:17:40.394Z,12.55
2023-03-05T05:20:08.807Z,13.30
2023-03-05T05:22:35.531Z,13.55
2023-03-05T05:25:02.199Z,13.18
2023-03-05T05:27:28.949Z,14.30
2023-03-05T05:29:55.998Z,13.55
2023-03-05T05:32:23.630Z,14.63
2023-03-05T05:34:58.375Z,13.23
2023-03-05T05:37:26.205Z,14.32
2023-03-05T05:39:52.984Z,14.48
2023-03-05T05:42:22.369Z,14.85
2023-03-05T05:44:49.657Z,14.50
2023-03-05T05:47:17.663Z,14.20
2023-03-05T05:49:44.314Z,15.57
2023-03-05T05:52:11.164Z,15.98
2023-03-05T05:54:38.543Z,15.20
2023-03-05T05:57:05.601Z,15.38
2023-03-05T05:59:32.163Z,15.48
2023-03-05T06:01:59.003Z,16.35
2023-03-05T06:04:25.790Z,15.57
2023-03-05T06:06:52.307Z,15.85
2023-03-05T06:09:18.818Z,16.98
2023-03-05T06:11:45.410Z,15.50
2023-03-05T06:14:12.857Z,16.20
2023-03-05T06:16:39.657Z,17.30
2023-03-05T06:19:06.640Z,16.35
2023-03-05T06:21:33.474Z,16.88
2023-03-05T06:24:00.651Z,16.55
2023-03-05T06:26:27.204Z,16.73
2023-03-05T06:28:54.181Z,17.42
2023-03-05T06:31:22.752Z,16.27
2023-03-05T06:33:50.112Z,16.42
2023-03-05T06:36:20.577Z,16.00
2023-03-05T06:38:48.978Z,17.08
2023-03-05T06:41:19.044Z,17.67
2023-03-05T06:43:47.185Z,16.45
2023-03-05T06:46:26.494Z,16.20
2023-03-05T06:48:55.913Z,15.77
2023-03-05T06:51:28.672Z,18.42
2023-03-05T06:53:56.599Z,16.75
2023-03-05T06:56:23.579Z,17.38
2023-03-05T06:58:51.813Z,16.40
2023-03-05T07:01:20.132Z,17.13
2023-03-05T07:03:50.725Z,17.05
2023-03-05T07:06:17.324Z,15.77
2023-03-05T07:08:44.236Z,17.08
2023-03-05T07:11:16.282Z,16.73
2023-03-05T07:13:43.065Z,16.98
2023-03-05T07:16:14.845Z,16.67
2023-03-05T07:18:41.676Z,16.50
2023-03-05T07:21:09.349Z,16.02
2023-03-05T07:23:36.618Z,16.83
2023-03-05T07:26:04.772Z,16.67
2023-03-05T07:28:31.614Z,15.43
2023-03-05T07:31:04.319Z,16.40
2023-03-05T07:33:31.373Z,17.02
2023-03-05T07:35:58.058Z,15.43
2023-03-05T07:38:24.719Z,16.77
2023-03-05T07:40:51.246Z,15.68
2023-03-05T07:43:18.313Z,16.05
2023-03-05T07:45:45.990Z,15.55
2023-03-05T07:48:15.812Z,14.77
2023-03-05T07:50:43.036Z,16.60
2023-03-05T07:53:10.527Z,16.70
2023-03-05T07:55:42.865Z,15.90
2023-03-05T07:58:09.861Z,16.80
2023-03-05T08:00:36.619Z,15.93
2023-03-05T08:03:03.639Z,15.77
2023-03-05T08:05:30.364Z,14.80
2023-03-05T08:07:56.921Z,14.80
2023-03-05T08:10:23.476Z,15.00
2023-03-05T08:12:49.962Z,13.90
2023-03-05T08:15:16.575Z,15.23
2023-03-05T08:17:43.441Z,15.10
2023-03-05T08:20:10.498Z,14.13
2023-03-05T08:22:37.852Z,15.27
2023-03-05T08:25:06.345Z,13.23
2023-03-05T08:27:33.165Z,14.02
2023-03-05T08:30:02.039Z,14.25
2023-03-05T08:32:29.293Z,13.60
2023-03-05T08:34:57.215Z,13.63
2023-03-05T08:37:24.118Z,13.30
2023-03-05T08:39:50.805Z,13.02
2023-03-05T08:42:20.381Z,13.57
2023-03-05T08:44:47.051Z,13.88
2023-03-05T08:47:13.698Z,13.85
2023-03-05T08:49:40.208Z,13.50
2023-03-05T08:52:06.865Z,14.20
2023-03-05T08:54:34.115Z,14.68
2023-03-05T08:57:00.614Z,14.40
2023-03-05T08:59:29.082Z,13.50
2023-03-05T09:01:56.278Z,12.85
2023-03-05T09:04:22.813Z,13.90
2023-03-05T09:06:49.340Z,13.73
2023-03-05T09:09:17.562Z,13.18
2023-03-05T09:11:44.063Z,14.90
2023-03-05T09:14:10.854Z,13.60
2023-03-05T09:16:37.563Z,13.57
2023-03-05T09:19:04.145Z,15.55
2023-03-05T09:21:30.972Z,14.70
2023-03-05T09:23:57.437Z,14.60
2023-03-05T09:26:23.948Z,14.68
2023-03-05T09:28:50.519Z,14.02
2023-03-05T09:31:17.913Z,14.10
2023-03-05T09:33:44.789Z,14.02
2023-03-05T09:36:26.908Z,14.32
2023-03-05T09:38:54.119Z,14.70
2023-03-05T09:41:35.798Z,14.32
2023-03-05T09:44:05.454Z,14.73
2023-03-05T09:46:36.119Z,15.27
2023-03-05T09:49:15.978Z,11.25
2023-03-05T09:51:45.452Z,13.93
2023-03-05T09:54:39.737Z,13.48
2023-03-05T09:57:15.041Z,14.50
2023-03-05T09:59:48.709Z,13.90
2023-03-05T10:02:24.323Z,14.50
2023-03-05T10:04:57.757Z,14.60
2023-03-05T10:07:29.934Z,14.55
2023-03-05T10:10:03.518Z,14.18
2023-03-05T10:12:59.941Z,13.82
2023-03-05T10:16:06.299Z,13.93
2023-03-05T10:18:51.555Z,13.85
2023-03-05T10:21:30.861Z,12.73
2023-03-05T10:24:35.436Z,13.85
2023-03-05T10:27:14.069Z,13.73
2023-03-05T10:30:03.063Z,14.50
2023-03-05T10:32:44.679Z,14.75
2023-03-05T10:37:49.866Z,13.48
2023-03-05T10:40:37.513Z,14.77
2023-03-05T10:43:18.198Z,14.27
2023-03-05T10:45:48.652Z,14.45
2023-03-05T10:48:35.274Z,13.80
2023-03-05T10:51:13.533Z,14.63
2023-03-05T10:53:54.688Z,14.27
2023-03-05T10:56:23.809Z,13.77
2023-03-05T10:58:50.582Z,13.40
2023-03-05T11:01:27.478Z,12.55
2023-03-05T11:04:05.725Z,13.48
2023-03-05T11:06:41.279Z,13.40
2023-03-05T11:09:17.342Z,13.43
2023-03-05T11:11:45.369Z,13.40
2023-03-05T11:14:25.362Z,14.48
2023-03-05T11:16:52.360Z,13.20
2023-03-05T11:19:33.474Z,11.52
2023-03-05T11:22:19.433Z,12.27
2023-03-05T11:25:04.225Z,12.30
2023-03-05T11:27:38.007Z,12.73
2023-03-05T11:30:19.315Z,11.68
2023-03-05T11:32:46.314Z,11.43
2023-03-05T11:35:34.041Z,11.50
2023-03-05T11:38:03.538Z,10.85
2023-03-05T11:40:32.455Z,10.65
2023-03-05T11:43:00.481Z,10.98
2023-03-05T11:45:29.091Z,10.43
2023-03-05T11:48:01.329Z,10.48
2023-03-05T11:50:33.501Z,9.63
2023-03-05T11:53:14.773Z,9.93
2023-03-05T11:55:48.381Z,9.07
2023-03-05T11:58:28.417Z,10.10
2023-03-05T12:00:55.726Z,9.68
2023-03-05T12:03:35.530Z,9.43
2023-03-05T12:06:29.553Z,10.23
2023-03-05T12:09:00.546Z,9.10
2023-03-05T12:11:30.785Z,9.27
2023-03-05T12:14:10.875Z,8.23
2023-03-05T12:16:48.487Z,9.02
2023-03-05T12:19:28.217Z,9.60
2023-03-05T12:21:54.992Z,9.23
2023-03-05T12:24:27.745Z,8.57
2023-03-05T12:26:56.749Z,8.32
2023-03-05T12:29:27.922Z,8.68
2023-03-05T12:31:54.518Z,8.20
2023-03-05T12:34:40.492Z,8.05
2023-03-05T12:37:22.550Z,8.50
2023-03-05T12:40:01.901Z,7.65
2023-03-05T12:42:28.614Z,8.45
2023-03-05T12:45:10.464Z,8.60
2023-03-05T12:47:44.724Z,7.72
2023-03-05T12:50:26.513Z,8.13
2023-03-05T12:55:24.390Z,7.78
2023-03-05T12:58:01.460Z,7.95
2023-03-05T13:00:43.043Z,8.98
2023-03-05T13:03:14.514Z,8.55
2023-03-05T13:05:49.642Z,8.60
2023-03-05T13:08:19.093Z,8.48
2023-03-05T13:10:55.403Z,8.13
2023-03-05T13:13:22.675Z,8.25
2023-03-05T13:15:50.669Z,7.97
2023-03-05T13:18:21.504Z,7.63
2023-03-05T13:20:48.550Z,7.85
2023-03-05T13:23:25.537Z,7.40
2023-03-05T13:26:20.143Z,8.35
2023-03-05T13:29:05.509Z,7.78
2023-03-05T13:31:35.513Z,8.82
2023-03-05T13:34:15.495Z,7.72
2023-03-05T13:36:47.308Z,7.43
2023-03-05T13:39:21.144Z,7.93
2023-03-05T13:42:04.540Z,7.95
2023-03-05T13:44:32.800Z,7.95
2023-03-05T13:47:21.429Z,7.68
2023-03-05T13:49:56.271Z,8.10
2023-03-05T13:52:29.703Z,8.05
2023-03-05T13:54:58.634Z,8.40
2023-03-05T13:57:52.441Z,8.00
2023-03-05T14:00:35.422Z,8.45
2023-03-05T14:03:23.274Z,8.43
2023-03-05T14:05:50.026Z,8.40
2023-03-05T14:08:21.815Z,8.70
2023-03-05T14:10:49.853Z,8.57
2023-03-05T14:13:22.392Z,8.05
2023-03-05T14:16:09.489Z,8.43
2023-03-05T14:18:37.209Z,8.63
2023-03-05T14:21:08.127Z,8.40
2023-03-05T14:23:48.991Z,8.63
2023-03-05T14:26:36.547Z,9.40
2023-03-05T14:29:08.994Z,8.48
2023-03-05T14:31:58.745Z,9.80
2023-03-05T14:34:32.850Z,9.88
2023-03-05T14:37:02.386Z,9.63
2023-03-05T14:39:37.286Z,9.45
2023-03-05T14:42:15.564Z,9.50
2023-03-05T14:44:42.064Z,9.32
2023-03-05T14:47:08.781Z,9.13
2023-03-05T14:49:35.361Z,9.63
2023-03-05T14:52:02.837Z,9.80
2023-03-05T14:54:36.199Z,9.13
2023-03-05T14:57:05.011Z,9.00
2023-03-05T14:59:34.061Z,9.40
2023-03-05T15:02:00.612Z,9.85
2023-03-05T15:04:30.069Z,9.85
2023-03-05T15:06:56.837Z,8.88
2023-03-05T15:09:25.616Z,9.15
2023-03-05T15:11:52.568Z,8.82
2023-03-05T15:14:19.118Z,11.00
2023-03-05T15:16:46.581Z,11.27
2023-03-05T15:19:13.475Z,10.25
2023-03-05T15:21:40.721Z,11.68
2023-03-05T15:24:07.762Z,12.38
2023-03-05T15:26:35.258Z,10.35
2023-03-05T15:29:01.994Z,9.40
2023-03-05T15:31:28.656Z,10.60
2023-03-05T15:33:55.527Z,10.55
2023-03-05T15:36:22.134Z,9.52
2023-03-05T15:38:48.896Z,14.70
2023-03-05T15:41:15.585Z,20.60
2023-03-05T15:43:42.201Z,10.13
2023-03-05T15:46:08.928Z,20.83
2023-03-05T15:48:35.696Z,10.30
2023-03-05T15:51:09.280Z,10.27
2023-03-05T15:53:35.922Z,9.70
2023-03-05T15:56:02.432Z,11.00
2023-03-05T15:58:28.922Z,10.38
2023-03-05T16:00:55.472Z,9.93
2023-03-05T16:03:22.088Z,10.23
2023-03-05T16:05:49.077Z,10.45
2023-03-05T16:08:15.644Z,11.60
2023-03-05T16:10:42.334Z,10.23
2023-03-05T16:13:12.276Z,10.73
2023-03-05T16:15:40.675Z,9.80
2023-03-05T16:18:12.036Z,9.80
2023-03-05T16:20:38.578Z,11.30
2023-03-05T16:23:05.634Z,10.73
2023-03-05T16:25:32.585Z,10.60
2023-03-05T16:27:59.682Z,10.38
2023-03-05T16:30:26.406Z,10.65
2023-03-05T16:32:53.795Z,12.57
2023-03-05T16:35:20.770Z,10.63
2023-03-05T16:37:47.474Z,11.40
2023-03-05T16:40:14.754Z,11.60
2023-03-05T16:42:41.305Z,12.15
2023-03-05T16:45:08.884Z,10.63
2023-03-05T16:47:35.879Z,11.30
2023-03-05T16:50:03.445Z,13.40
2023-03-05T16:52:30.618Z,10.40
2023-03-05T16:54:57.287Z,11.18
2023-03-05T16:57:23.859Z,11.02
2023-03-05T16:59:50.461Z,8.23
2023-03-05T17:02:17.465Z,8.00
2023-03-05T17:04:44.618Z,6.47
2023-03-05T17:07:11.252Z,8.15
2023-03-05T17:09:38.014Z,11.18
2023-03-05T17:12:04.681Z,7.00
2023-03-05T17:14:31.250Z,7.18
2023-03-05T17:16:58.069Z,7.07
2023-03-05T17:19:24.572Z,7.00
2023-03-05T17:21:51.073Z,6.47
2023-03-05T17:24:18.542Z,7.22
2023-03-05T17:26:45.992Z,7.03
2023-03-05T17:29:12.615Z,7.00
2023-03-05T17:31:39.329Z,6.72
2023-03-05T17:34:05.829Z,8.25
2023-03-05T17:36:32.330Z,7.32
2023-03-05T17:38:58.932Z,6.85
2023-03-05T17:41:25.398Z,6.93
2023-03-05T17:43:51.933Z,6.70
2023-03-05T17:46:18.538Z,6.53
2023-03-05T17:48:45.162Z,6.55
2023-03-05T17:51:13.815Z,6.22
2023-03-05T17:53:40.647Z,6.43
2023-03-05T17:56:12.417Z,6.78
2023-03-05T17:58:39.427Z,6.82
2023-03-05T18:01:07.287Z,6.43
2023-03-05T18:03:34.768Z,6.95
2023-03-05T18:06:01.524Z,6.00
2023-03-05T18:08:28.063Z,6.03
2023-03-05T18:10:54.918Z,6.20
2023-03-05T18:13:21.484Z,6.00
2023-03-05T18:15:48.035Z,6.28
2023-03-05T18:18:16.661Z,6.43
2023-03-05T18:20:43.807Z,6.28
2023-03-05T18:23:10.800Z,6.75
2023-03-05T18:25:37.352Z,7.00
2023-03-05T18:28:07.077Z,7.50
2023-03-05T18:30:34.260Z,7.32
2023-03-05T18:33:01.043Z,7.18
2023-03-05T18:35:28.397Z,6.55
2023-03-05T18:37:55.455Z,6.90
2023-03-05T18:40:25.309Z,6.63
2023-03-05T18:42:52.405Z,6.90
2023-03-05T18:45:21.392Z,7.28
2023-03-05T18:47:48.179Z,6.90
2023-03-05T18:50:17.432Z,6.72
2023-03-05T18:52:45.275Z,6.80
2023-03-05T18:55:21.622Z,7.28
2023-03-05T18:57:48.195Z,6.75
2023-03-05T19:00:27.539Z,7.20
2023-03-05T19:02:55.234Z,6.80
2023-03-05T19:05:22.336Z,6.35
2023-03-05T19:07:49.174Z,7.00
2023-03-05T19:10:16.745Z,7.20
2023-03-05T19:12:44.030Z,6.88
2023-03-05T19:15:13.085Z,7.43
2023-03-05T19:17:39.851Z,7.20
2023-03-05T19:20:07.494Z,7.15
2023-03-05T19:22:34.179Z,7.20
2023-03-05T19:25:00.684Z,7.43
2023-03-05T19:27:27.720Z,7.68
2023-03-05T19:29:54.823Z,9.40
2023-03-05T19:32:21.703Z,7.72
2023-03-05T19:34:48.739Z,7.85
2023-03-05T19:37:15.755Z,8.35
2023-03-05T19:39:42.439Z,8.55
2023-03-05T19:42:09.138Z,8.95
2023-03-05T19:44:35.847Z,9.50
2023-03-05T19:47:02.474Z,8.27
2023-03-05T19:49:29.288Z,7.72
2023-03-05T19:51:55.774Z,7.85
2023-03-05T19:54:23.283Z,7.53
2023-03-05T19:56:52.347Z,8.60
2023-03-05T19:59:20.708Z,7.80
2023-03-05T20:01:48.616Z,7.38
2023-03-05T20:04:21.261Z,7.50
2023-03-05T20:06:48.013Z,9.18
2023-03-05T20:09:15.332Z,9.13
2023-03-05T20:11:42.349Z,9.55
2023-03-05T20:14:09.865Z,9.40
2023-03-05T20:16:37.573Z,8.27
2023-03-05T20:19:05.865Z,9.05
2023-03-05T20:21:35.360Z,9.43
2023-03-05T20:24:04.683Z,8.93
2023-03-05T20:26:34.373Z,8.13
2023-03-05T20:29:00.881Z,7.88
2023-03-05T20:31:27.943Z,8.63
2023-03-05T20:33:55.867Z,8.13
2023-03-05T20:36:23.484Z,8.00
2023-03-05T20:38:50.254Z,8.07
2023-03-05T20:41:18.942Z,7.55
2023-03-05T20:43:47.806Z,8.25
2023-03-05T20:46:32.878Z,8.27
2023-03-05T20:49:01.947Z,9.88
2023-03-05T20:51:33.041Z,10.15
2023-03-05T20:54:04.126Z,8.43
2023-03-05T20:56:32.524Z,7.47
2023-03-05T20:59:00.504Z,8.93
2023-03-05T21:01:27.959Z,8.45
2023-03-05T21:03:56.326Z,8.73
2023-03-05T21:06:23.608Z,9.30
2023-03-05T21:08:50.266Z,9.45
2023-03-05T21:11:17.074Z,8.95
2023-03-05T21:13:44.375Z,9.48
2023-03-05T21:16:16.214Z,9.82
2023-03-05T21:18:42.750Z,9.15
2023-03-05T21:21:09.291Z,9.40
2023-03-05T21:23:35.783Z,10.45
2023-03-05T21:26:02.761Z,9.85
2023-03-05T21:28:29.785Z,9.93
2023-03-05T21:30:56.681Z,10.48
2023-03-05T21:33:30.026Z,11.05
2023-03-05T21:35:57.212Z,10.65
2023-03-05T21:38:25.181Z,9.82
2023-03-05T21:40:53.470Z,10.40
2023-03-05T21:43:22.756Z,9.55
2023-03-05T21:45:51.037Z,10.10
2023-03-05T21:48:17.774Z,10.02
2023-03-05T21:50:45.219Z,10.32
2023-03-05T21:53:12.981Z,10.50
2023-03-05T21:55:40.339Z,10.15
2023-03-05T21:58:06.830Z,11.13
2023-03-05T22:00:33.394Z,10.68
2023-03-05T22:02:59.857Z,10.75
2023-03-05T22:05:26.387Z,10.55
2023-03-05T22:07:52.903Z,10.15
2023-03-05T22:10:20.240Z,10.52
2023-03-05T22:12:59.809Z,10.55
2023-03-05T22:15:26.373Z,10.45
2023-03-05T22:17:52.822Z,10.52
2023-03-05T22:20:19.337Z,11.30
2023-03-05T22:22:46.222Z,11.30
2023-03-05T22:25:14.974Z,12.13
2023-03-05T22:27:42.650Z,11.13
2023-03-05T22:30:11.540Z,10.95
2023-03-05T22:32:38.498Z,10.93
2023-03-05T22:35:06.347Z,10.85
2023-03-05T22:37:33.135Z,11.30
2023-03-05T22:39:59.620Z,11.82
2023-03-05T22:42:26.265Z,10.93
2023-03-05T22:44:57.264Z,10.93
2023-03-05T22:47:25.298Z,8.55
2023-03-05T22:49:51.816Z,10.65
2023-03-05T22:52:18.471Z,9.75
2023-03-05T22:54:44.989Z,10.25
2023-03-05T22:57:11.811Z,10.98
2023-03-05T22:59:38.283Z,10.15
2023-03-05T23:02:05.008Z,11.55
2023-03-05T23:04:35.117Z,10.73
2023-03-05T23:07:01.611Z,11.57
2023-03-05T23:09:28.139Z,11.20
2023-03-05T23:11:54.727Z,12.23
2023-03-05T23:14:21.274Z,10.48
2023-03-05T23:16:47.771Z,11.52
2023-03-05T23:19:14.277Z,11.38
2023-03-05T23:21:43.874Z,11.27
2023-03-05T23:24:10.358Z,11.70
2023-03-05T23:26:36.861Z,12.57
2023-03-05T23:29:03.344Z,12.63
2023-03-05T23:31:29.821Z,11.70
2023-03-05T23:33:56.340Z,12.63
2023-03-05T23:36:26.116Z,11.52
2023-03-05T23:38:52.625Z,11.57
2023-03-05T23:41:19.071Z,11.13
2023-03-05T23:43:45.586Z,11.90
2023-03-05T23:46:12.344Z,11.25
2023-03-05T23:48:38.940Z,12.07
2023-03-05T23:51:10.092Z,13.07
2023-03-05T23:53:37.213Z,12.55
2023-03-05T23:56:09.099Z,11.35
2023-03-05T23:58:37.505Z,11.65
